Time;durP1;ratioP1;P1;durP2;ratioP2;P2;SDS_P1;SDS_P2;PMS_P1;PMS_P2;Temp;Humidity;BMP_temperature;BMP_pressure;BME280_temperature;BME280_humidity;BME280_pressure;Samples;Min_cycle;Max_cycle;Signal;HPM_P1;HPM_P2
2022/10/08 00:02:08;;;;;;;8.50;5.40;;;12.70;93.90;;;12.88;59.92;95689.84;5028660;28;20456;-58
2022/10/08 00:04:36;;;;;;;13.63;6.03;;;12.70;94.00;;;12.87;60.38;95696.13;5028856;28;20504;-55
2022/10/08 00:07:03;;;;;;;7.57;6.03;;;12.60;94.20;;;12.85;60.44;95695.41;5028711;28;20453;-56
2022/10/08 00:09:30;;;;;;;7.37;5.70;;;12.60;94.40;;;12.84;60.55;95684.97;5028884;28;20473;-56
2022/10/08 00:11:57;;;;;;;10.10;6.83;;;12.60;94.40;;;12.82;60.53;95685.09;5028459;28;20452;-55
2022/10/08 00:14:25;;;;;;;7.07;5.43;;;12.60;94.80;;;12.81;60.65;95688.72;5028296;28;20472;-55
2022/10/08 00:16:53;;;;;;;9.20;5.50;;;12.60;94.60;;;12.79;60.60;95684.53;5028387;28;20981;-57
2022/10/08 00:19:21;;;;;;;9.83;5.73;;;12.50;94.50;;;12.78;60.86;95683.72;5028347;28;20496;-53
2022/10/08 00:21:52;;;;;;;10.73;5.33;;;12.50;94.80;;;12.77;60.67;95682.03;5028069;28;20479;-56
2022/10/08 00:24:20;;;;;;;6.63;5.13;;;12.50;94.70;;;12.75;60.78;95681.34;5028048;28;20555;-55
2022/10/08 00:26:47;;;;;;;18.47;5.33;;;12.50;94.80;;;12.74;60.83;95682.31;5028078;28;20452;-57
2022/10/08 00:29:16;;;;;;;8.70;6.00;;;12.50;94.90;;;12.70;61.01;95676.47;5028324;28;20459;-57
2022/10/08 00:31:45;;;;;;;16.20;6.77;;;12.50;95.00;;;12.68;61.21;95672.28;5025248;28;20448;-56
2022/10/08 00:34:15;;;;;;;14.30;7.67;;;12.50;95.20;;;12.65;61.01;95668.09;5027880;28;20484;-55
2022/10/08 00:36:43;;;;;;;11.20;5.87;;;12.40;95.10;;;12.63;61.16;95672.69;5024543;28;20477;-56
2022/10/08 00:39:12;;;;;;;7.40;5.50;;;12.40;95.20;;;12.59;61.17;95668.63;5027979;28;20460;-57
2022/10/08 00:41:39;;;;;;;7.40;6.30;;;12.40;95.40;;;12.58;60.94;95660.84;5028198;28;20464;-56
2022/10/08 00:44:48;;;;;;;8.33;6.40;;;12.40;95.30;;;12.54;61.75;95665.56;5024276;28;20456;-56
2022/10/08 00:47:18;;;;;;;14.93;7.00;;;12.30;95.60;;;12.51;61.64;95661.38;5027351;28;21014;-56
2022/10/08 00:49:48;;;;;;;9.23;6.47;;;12.30;95.60;;;12.50;61.48;95662.34;5027775;28;20480;-56
2022/10/08 00:52:15;;;;;;;8.30;6.00;;;12.30;95.60;;;12.49;60.89;95665.13;5027852;28;20445;-56
2022/10/08 00:54:42;;;;;;;11.60;6.70;;;12.30;95.60;;;12.47;61.68;95657.34;5027401;28;21001;-53
2022/10/08 00:57:09;;;;;;;11.13;6.37;;;12.30;95.60;;;12.45;61.39;95661.91;5027966;28;20449;-57
2022/10/08 00:59:37;;;;;;;12.53;6.40;;;12.20;95.60;;;12.43;61.57;95652.47;5027536;28;21086;-55
2022/10/08 01:02:07;;;;;;;14.30;7.10;;;12.20;95.60;;;12.40;61.71;95650.91;5027967;28;20539;-54
2022/10/08 01:04:34;;;;;;;12.10;6.13;;;12.20;95.60;;;12.37;61.65;95649.34;5027189;28;20920;-54
2022/10/08 01:07:07;;;;;;;9.73;6.20;;;12.20;95.70;;;12.35;61.41;95643.38;5027561;28;20460;-55
2022/10/08 01:09:37;;;;;;;11.07;7.20;;;12.10;95.60;;;12.32;61.53;95645.47;5023784;28;20527;-55
2022/10/08 01:12:08;;;;;;;14.70;7.43;;;12.10;95.90;;;12.29;61.80;95641.28;5029682;28;20963;-55
2022/10/08 01:14:41;;;;;;;9.70;7.10;;;12.10;96.10;;;12.27;61.99;95631.81;5027093;28;20476;-54
2022/10/08 01:17:13;;;;;;;12.20;7.20;;;12.10;96.10;;;12.24;61.93;95621.53;5025421;28;20544;-53
2022/10/08 01:20:03;;;;;;;19.10;7.90;;;12.00;96.10;;;12.22;62.63;95621.66;5027091;28;20721;-55
2022/10/08 01:22:48;;;;;;;11.20;6.90;;;12.00;96.30;;;12.21;62.30;95627.91;5024045;28;20467;-57
2022/10/08 01:25:33;;;;;;;13.67;7.90;;;12.00;96.40;;;12.19;62.43;95617.50;5027354;28;20472;-55
2022/10/08 01:28:05;;;;;;;11.00;6.43;;;12.00;96.40;;;12.18;62.10;95612.34;5027615;28;20444;-57
2022/10/08 01:30:34;;;;;;;10.83;6.83;;;12.00;96.50;;;12.16;62.45;95607.22;5027047;28;20542;-55
2022/10/08 01:33:03;;;;;;;17.43;7.50;;;11.90;96.50;;;12.16;62.11;95609.00;5027135;28;20521;-56
2022/10/08 01:35:32;;;;;;;14.83;7.73;;;11.90;96.50;;;12.15;62.13;95617.91;5027001;28;20539;-57
2022/10/08 01:38:01;;;;;;;15.20;8.10;;;11.90;96.60;;;12.12;62.39;95608.44;5026839;28;20484;-56
2022/10/08 01:40:31;;;;;;;10.90;7.17;;;11.90;96.50;;;12.11;62.62;95612.03;5026724;28;20464;-57
2022/10/08 01:42:59;;;;;;;16.83;7.33;;;11.90;96.60;;;12.09;62.48;95611.34;5027597;28;20433;-53
2022/10/08 01:45:31;;;;;;;21.50;7.40;;;11.90;96.80;;;12.07;62.84;95610.63;5026996;28;20476;-56
2022/10/08 01:47:59;;;;;;;12.03;7.87;;;11.80;97.00;;;12.06;62.55;95602.84;5023590;28;20825;-55
2022/10/08 01:50:30;;;;;;;16.83;8.20;;;11.80;96.80;;;12.04;62.37;95610.03;5026638;28;21032;-56
2022/10/08 01:53:03;;;;;;;19.13;7.37;;;11.80;96.80;;;12.02;62.60;95612.81;5027168;28;20457;-56
2022/10/08 01:55:34;;;;;;;14.43;8.50;;;11.80;96.90;;;12.01;62.96;95605.88;5026771;28;20504;-52
2022/10/08 01:58:06;;;;;;;12.33;6.60;;;11.80;97.10;;;11.99;63.02;95607.78;5027281;28;20453;-59
2022/10/08 02:00:34;;;;;;;13.87;7.13;;;11.80;97.10;;;11.95;62.88;95599.31;5026609;28;20485;-54
2022/10/08 02:03:02;;;;;;;10.53;6.23;;;11.80;97.10;;;11.94;62.79;95602.09;5027129;28;20475;-56
2022/10/08 02:05:32;;;;;;;9.67;7.10;;;11.70;97.00;;;11.91;62.67;95597.03;5026824;28;20479;-56
2022/10/08 02:08:00;;;;;;;15.47;7.33;;;11.70;97.10;;;11.91;62.67;95604.94;5026988;28;20450;-56
2022/10/08 02:10:27;;;;;;;8.43;6.77;;;11.70;97.10;;;11.89;62.61;95604.25;5026168;28;20487;-57
2022/10/08 02:12:55;;;;;;;10.33;5.83;;;11.70;97.10;;;11.87;62.59;95598.25;5019570;28;20538;-55
2022/10/08 02:15:26;;;;;;;11.30;6.67;;;11.70;97.10;;;11.84;62.55;95613.38;5025696;28;20499;-55
2022/10/08 02:17:57;;;;;;;12.60;6.00;;;11.60;96.90;;;11.80;62.59;95611.97;5026488;28;20833;-56
2022/10/08 02:20:30;;;;;;;11.43;5.97;;;11.60;96.90;;;11.76;62.42;95604.47;5023655;28;20556;-56
2022/10/08 02:23:00;;;;;;;9.73;6.27;;;11.60;96.90;;;11.74;62.62;95603.72;5025991;28;20464;-57
2022/10/08 02:25:31;;;;;;;20.33;6.80;;;11.60;97.00;;;11.72;62.20;95609.13;5023440;28;20481;-57
2022/10/08 02:28:06;;;;;;;8.73;7.10;;;11.50;96.90;;;11.71;62.71;95609.25;5026014;28;20459;-56
2022/10/08 02:30:38;;;;;;;16.80;6.80;;;11.50;97.00;;;11.71;62.79;95607.47;5022510;28;20519;-54
2022/10/08 02:33:11;;;;;;;6.07;5.47;;;11.50;97.00;;;11.70;62.61;95597.91;5026193;28;20472;-56
2022/10/08 02:35:40;;;;;;;9.13;6.47;;;11.50;97.00;;;11.69;62.80;95600.66;5022206;28;20492;-55
2022/10/08 02:38:11;;;;;;;6.27;5.50;;;11.50;97.10;;;11.67;62.78;95608.69;5026081;28;20456;-56
2022/10/08 02:40:40;;;;;;;12.73;6.30;;;11.50;97.10;;;11.66;62.90;95596.47;5025511;28;20477;-56
2022/10/08 02:43:11;;;;;;;8.00;6.00;;;11.50;97.20;;;11.65;63.05;95610.63;5025823;28;20448;-55
2022/10/08 02:45:41;;;;;;;5.50;5.00;;;11.50;97.30;;;11.64;62.82;95604.50;5025446;28;21033;-55
2022/10/08 02:48:19;;;;;;;11.53;6.57;;;11.50;97.40;;;11.62;62.75;95600.34;5022686;28;20475;-56
2022/10/08 02:50:46;;;;;;;10.70;6.60;;;11.50;97.40;;;11.59;62.83;95596.16;5025407;28;20457;-56
2022/10/08 02:53:17;;;;;;;14.40;6.50;;;11.40;97.30;;;11.58;63.20;95598.91;5025568;28;20957;-56
2022/10/08 02:55:49;;;;;;;13.37;7.00;;;11.40;97.40;;;11.57;63.38;95599.88;5025691;28;20582;-57
2022/10/08 02:58:17;;;;;;;16.80;6.23;;;11.40;97.60;;;11.56;63.32;95592.97;5021951;28;20452;-54
2022/10/08 03:00:50;;;;;;;10.60;6.60;;;11.40;97.60;;;11.54;63.41;95594.84;5025304;28;20480;-55
2022/10/08 03:03:22;;;;;;;16.53;6.23;;;11.40;97.60;;;11.53;63.45;95596.66;5025716;28;20491;-57
2022/10/08 03:05:49;;;;;;;8.33;6.33;;;11.40;98.10;;;11.51;63.42;95598.59;5025588;28;20473;-58
2022/10/08 03:08:17;;;;;;;15.83;6.27;;;11.30;97.60;;;11.48;63.46;95599.69;5025168;28;21013;-55
2022/10/08 03:10:44;;;;;;;7.90;6.30;;;11.30;97.70;;;11.46;63.91;95591.09;5025471;28;20488;-55
2022/10/08 03:13:12;;;;;;;12.50;6.80;;;11.30;97.80;;;11.45;63.32;95594.66;5025323;28;20471;-55
2022/10/08 03:15:39;;;;;;;8.43;5.90;;;11.30;97.80;;;11.43;63.47;95593.97;5025093;28;20554;-56
2022/10/08 03:18:08;;;;;;;14.53;6.83;;;11.30;97.80;;;11.42;63.72;95597.56;5025218;28;20447;-56
2022/10/08 03:20:43;;;;;;;16.63;6.43;;;11.20;97.70;;;11.40;63.85;95596.88;5026224;28;20570;-55
2022/10/08 03:23:11;;;;;;;9.57;7.07;;;11.20;97.70;;;11.38;63.82;95596.13;5025010;28;20460;-54
2022/10/08 03:25:38;;;;;;;14.93;7.13;;;11.20;97.80;;;11.35;63.76;95587.66;5025490;28;20814;-55
2022/10/08 03:28:05;;;;;;;10.00;6.80;;;11.20;97.90;;;11.35;63.54;95595.56;5025214;28;20504;-56
2022/10/08 03:30:33;;;;;;;15.33;7.53;;;11.20;97.70;;;11.34;63.71;95588.59;5025278;28;20473;-54
2022/10/08 03:33:00;;;;;;;11.23;7.57;;;11.20;97.80;;;11.33;63.95;95597.50;5025225;28;20504;-56
2022/10/08 03:35:27;;;;;;;15.03;7.23;;;11.10;98.00;;;11.30;63.88;95590.66;5025264;28;20477;-56
2022/10/08 03:37:56;;;;;;;10.03;7.37;;;11.10;98.00;;;11.31;64.12;95589.72;5025012;28;20465;-55
2022/10/08 03:40:23;;;;;;;18.43;7.40;;;11.10;98.10;;;11.31;63.85;95589.72;5025426;28;20491;-56
2022/10/08 03:42:51;;;;;;;13.30;7.30;;;11.10;98.10;;;11.29;63.92;95589.84;5025036;28;20461;-58
2022/10/08 03:45:18;;;;;;;14.73;7.47;;;11.10;98.10;;;11.29;63.82;95589.00;5024786;28;20481;-56
2022/10/08 03:47:51;;;;;;;15.10;8.00;;;11.10;98.10;;;11.26;63.34;95583.97;5025022;28;20598;-55
2022/10/08 03:50:19;;;;;;;22.23;8.73;;;11.10;97.70;;;11.20;63.54;95587.09;5024584;28;20571;-55
2022/10/08 03:52:46;;;;;;;11.53;6.87;;;11.10;97.90;;;11.17;63.90;95592.63;5024866;28;20475;-55
2022/10/08 03:55:15;;;;;;;11.10;6.93;;;11.00;98.00;;;11.13;63.86;95581.53;5024787;28;20477;-56
2022/10/08 03:57:43;;;;;;;16.80;6.40;;;10.90;98.00;;;11.11;64.07;95583.44;5025126;28;20503;-54
2022/10/08 04:00:11;;;;;;;14.83;8.03;;;10.90;98.20;;;11.09;64.24;95588.84;5023776;28;20480;-53
2022/10/08 04:02:42;;;;;;;8.47;5.80;;;10.90;98.30;;;11.08;64.29;95589.78;5024120;28;21008;-56
2022/10/08 04:05:10;;;;;;;11.20;5.97;;;10.90;98.40;;;11.06;64.20;95589.09;5025012;28;21024;-55
2022/10/08 04:07:37;;;;;;;12.37;6.83;;;10.90;98.30;;;11.04;64.27;95588.38;5024795;28;20461;-55
2022/10/08 04:10:05;;;;;;;8.30;5.80;;;10.90;98.40;;;11.03;64.32;95586.72;5024429;28;20583;-54
2022/10/08 04:12:34;;;;;;;7.43;6.00;;;10.90;98.60;;;11.03;64.52;95589.34;5024427;28;20460;-55
2022/10/08 04:15:02;;;;;;;12.23;6.80;;;10.90;98.50;;;11.04;64.27;95590.16;5024423;28;21005;-55
2022/10/08 04:17:29;;;;;;;12.83;6.60;;;10.90;98.40;;;11.04;64.33;95588.38;5024154;28;20492;-56
2022/10/08 04:19:56;;;;;;;15.20;7.30;;;10.90;98.50;;;11.04;64.61;95596.25;5024208;28;20472;-56
2022/10/08 04:22:24;;;;;;;11.67;6.70;;;10.90;98.70;;;11.04;64.29;95591.00;5024646;28;20570;-56
2022/10/08 04:24:51;;;;;;;18.27;6.30;;;10.90;98.60;;;11.04;64.37;95585.72;5024197;28;20868;-55
2022/10/08 04:27:19;;;;;;;13.03;6.60;;;10.90;98.60;;;11.02;64.64;95590.28;5024322;28;20461;-55
2022/10/08 04:29:47;;;;;;;14.70;6.70;;;10.90;98.70;;;11.01;64.53;95587.78;5024027;28;20497;-56
2022/10/08 04:32:15;;;;;;;17.97;6.83;;;10.80;98.90;;;10.99;64.67;95587.91;5023598;28;20460;-55
2022/10/08 04:34:42;;;;;;;17.87;6.87;;;10.80;98.70;;;10.98;64.60;95580.97;5023502;28;20481;-55
2022/10/08 04:37:10;;;;;;;14.03;6.30;;;10.80;98.80;;;10.99;64.62;95581.81;5024801;28;20499;-56
2022/10/08 04:39:37;;;;;;;16.23;6.57;;;10.80;98.80;;;10.97;64.27;95584.56;5027415;28;20473;-60
2022/10/08 04:42:05;;;;;;;9.90;5.97;;;10.80;98.80;;;10.98;64.61;95580.13;5028120;28;20978;-56
2022/10/08 04:44:33;;;;;;;12.53;6.47;;;10.80;98.70;;;10.97;64.39;95581.94;5027063;28;20464;-55
2022/10/08 04:47:01;;;;;;;13.10;5.73;;;10.80;98.70;;;10.94;64.66;95584.81;5027911;28;20453;-55
2022/10/08 04:49:29;;;;;;;11.77;6.03;;;10.80;98.70;;;10.93;64.75;95589.22;5027537;28;20465;-55
2022/10/08 04:51:56;;;;;;;13.40;7.10;;;10.80;98.80;;;10.93;64.64;95586.59;5027903;28;20448;-57
2022/10/08 04:54:24;;;;;;;20.17;7.30;;;10.80;98.80;;;10.93;64.26;95578.69;5027775;28;20539;-55
2022/10/08 04:56:51;;;;;;;11.10;6.30;;;10.80;98.60;;;10.90;64.18;95589.47;5027542;28;20871;-55
2022/10/08 04:59:18;;;;;;;12.57;6.97;;;10.80;98.40;;;10.87;64.41;95588.91;5028839;28;21023;-56
2022/10/08 05:01:45;;;;;;;20.70;7.53;;;10.70;98.50;;;10.85;64.30;95593.47;5023791;28;20452;-57
2022/10/08 05:04:14;;;;;;;15.57;7.60;;;10.70;98.50;;;10.83;64.41;95587.47;5030146;28;20453;-56
2022/10/08 05:06:42;;;;;;;13.17;6.47;;;10.70;98.60;;;10.80;64.72;95591.19;5027289;28;20452;-57
2022/10/08 05:09:09;;;;;;;15.30;7.83;;;10.70;98.80;;;10.79;64.56;95591.31;5027715;28;20918;-57
2022/10/08 05:11:37;;;;;;;14.03;8.03;;;10.70;98.70;;;10.77;64.71;95600.16;5027827;28;20515;-56
2022/10/08 05:14:04;;;;;;;22.23;9.77;;;10.60;98.70;;;10.78;65.03;95590.47;5027127;28;20467;-55
2022/10/08 05:16:31;;;;;;;22.07;8.63;;;10.60;99.00;;;10.76;65.16;95590.59;5026820;28;20870;-56
2022/10/08 05:18:59;;;;;;;14.57;8.30;;;10.60;99.10;;;10.80;64.79;95593.84;5026866;28;20468;-56
2022/10/08 05:21:29;;;;;;;13.80;7.50;;;10.60;99.00;;;10.84;64.69;95594.41;5027055;28;20499;-56
2022/10/08 05:23:57;;;;;;;11.50;7.50;;;10.70;98.80;;;10.86;64.74;95589.84;5026792;28;20461;-56
2022/10/08 05:26:26;;;;;;;18.07;7.83;;;10.70;99.00;;;10.90;65.52;95607.06;5026791;28;20448;-55
2022/10/08 05:28:55;;;;;;;15.83;7.90;;;10.70;99.40;;;10.98;66.53;95604.66;5027052;28;20980;-57
2022/10/08 05:31:23;;;;;;;22.70;8.23;;;10.80;99.90;;;11.10;67.50;95605.47;5024844;28;20456;-56
2022/10/08 05:33:50;;;;;;;13.20;8.10;;;10.90;99.90;;;11.21;67.57;95602.78;5025663;28;20606;-58
2022/10/08 05:36:19;;;;;;;17.27;8.40;;;11.00;99.90;;;11.34;66.98;95609.69;5026740;28;20985;-57
2022/10/08 05:38:47;;;;;;;15.07;8.57;;;11.10;99.90;;;11.43;67.37;95601.88;5023403;28;20514;-56
2022/10/08 05:41:16;;;;;;;23.40;8.70;;;11.20;99.90;;;11.58;65.98;95605.00;5026796;28;20481;-56
2022/10/08 05:43:43;;;;;;;23.40;8.03;;;11.40;99.90;;;11.73;65.18;95600.28;5026339;28;20453;-56
2022/10/08 05:46:11;;;;;;;15.17;7.97;;;11.50;99.80;;;11.88;64.70;95602.56;5026512;28;20477;-57
2022/10/08 05:48:38;;;;;;;13.73;7.87;;;11.60;99.70;;;12.05;64.56;95604.63;5026435;28;20471;-56
2022/10/08 05:51:07;;;;;;;20.00;8.70;;;11.80;99.40;;;12.25;64.18;95602.09;5024760;28;20472;-55
2022/10/08 05:53:38;;;;;;;18.50;8.67;;;12.00;99.20;;;12.48;63.57;95606.22;5026881;28;20851;-55
2022/10/08 05:56:07;;;;;;;14.60;9.10;;;12.10;99.00;;;12.73;63.27;95607.56;5023355;28;21045;-56
2022/10/08 05:58:35;;;;;;;18.17;8.57;;;12.40;98.80;;;13.00;63.27;95603.44;5025117;28;20468;-56
2022/10/08 06:01:04;;;;;;;22.27;10.27;;;12.60;98.40;;;13.29;62.27;95597.34;5025325;28;20520;-58
2022/10/08 06:03:31;;;;;;;22.47;8.93;;;12.90;98.20;;;13.57;61.82;95601.00;5026402;28;20494;-59
2022/10/08 06:06:02;;;;;;;20.47;9.87;;;13.20;98.00;;;13.88;61.52;95598.19;5025416;28;20830;-58
2022/10/08 06:08:29;;;;;;;21.13;9.33;;;13.50;97.60;;;14.19;60.62;95600.63;5025428;28;20456;-58
2022/10/08 06:10:57;;;;;;;22.73;10.20;;;13.80;97.20;;;14.52;59.92;95595.75;5025105;28;20469;-58
2022/10/08 06:13:26;;;;;;;19.97;10.20;;;14.00;96.60;;;14.83;59.47;95598.97;5025451;28;20467;-58
2022/10/08 06:15:56;;;;;;;38.43;10.00;;;14.40;96.30;;;15.18;58.91;95596.50;5025619;28;20579;-59
2022/10/08 06:18:24;;;;;;;16.57;9.83;;;14.70;95.80;;;15.51;58.11;95595.03;5024813;28;20489;-56
2022/10/08 06:20:51;;;;;;;20.03;9.23;;;15.00;95.40;;;15.86;57.32;95597.81;5025368;28;20477;-56
2022/10/08 06:23:19;;;;;;;19.63;9.23;;;15.40;94.80;;;16.20;56.35;95602.34;5025337;28;20476;-58
2022/10/08 06:25:46;;;;;;;23.37;9.90;;;15.70;94.10;;;16.52;55.79;95595.56;5025076;28;20499;-55
2022/10/08 06:28:14;;;;;;;13.07;8.20;;;16.00;93.50;;;16.84;55.36;95603.66;5025757;28;20896;-57
2022/10/08 06:30:43;;;;;;;17.43;10.20;;;16.40;93.10;;;17.19;54.66;95599.13;5025159;28;20480;-59
2022/10/08 06:33:10;;;;;;;25.73;9.27;;;16.70;92.30;;;17.52;53.22;95601.88;5024472;28;20456;-58
2022/10/08 06:35:38;;;;;;;20.50;9.80;;;17.00;91.60;;;17.86;53.13;95592.03;5025058;28;20465;-58
2022/10/08 06:38:05;;;;;;;18.17;9.23;;;17.40;91.40;;;18.23;52.48;95602.22;5025609;28;20502;-57
2022/10/08 06:40:37;;;;;;;20.93;9.43;;;17.70;90.90;;;18.61;51.52;95598.94;5024545;28;20468;-56
2022/10/08 06:43:06;;;;;;;25.40;10.07;;;18.10;90.00;;;18.98;51.03;95595.66;5025130;28;20452;-60
2022/10/08 06:45:37;;;;;;;22.67;8.60;;;18.40;88.20;;;19.34;50.22;95589.78;5025353;28;20560;-55
2022/10/08 06:48:06;;;;;;;15.40;9.67;;;18.80;86.50;;;19.73;49.58;95590.66;5024711;28;20445;-58
2022/10/08 06:50:34;;;;;;;23.53;9.73;;;19.20;85.30;;;20.14;48.49;95597.53;5024558;28;20477;-60
2022/10/08 06:53:01;;;;;;;18.07;9.60;;;19.50;83.00;;;20.56;48.75;95590.78;5023146;28;20460;-58
2022/10/08 06:55:28;;;;;;;25.90;9.10;;;19.90;82.20;;;20.97;48.05;95601.00;5024034;28;20504;-54
2022/10/08 06:57:55;;;;;;;18.10;8.87;;;20.30;80.40;;;21.40;47.54;95592.25;5024952;28;20513;-56
2022/10/08 07:00:23;;;;;;;13.87;8.20;;;20.80;79.10;;;21.88;46.96;95599.75;5024575;28;20511;-56
2022/10/08 07:02:50;;;;;;;22.10;8.67;;;21.20;78.00;;;22.37;46.66;95593.56;5024822;28;20463;-54
2022/10/08 07:05:19;;;;;;;17.00;8.80;;;21.70;77.30;;;22.92;46.56;95596.34;5021350;28;20538;-57
2022/10/08 07:07:46;;;;;;;22.23;10.60;;;22.20;76.40;;;23.37;45.21;95593.25;5025541;28;20457;-59
2022/10/08 07:10:14;;;;;;;40.27;9.70;;;22.60;75.00;;;23.81;44.31;95591.88;5024886;28;20472;-55
2022/10/08 07:12:41;;;;;;;20.13;8.50;;;23.10;72.20;;;24.26;44.38;95594.00;5022758;28;20492;-55
2022/10/08 07:15:10;;;;;;;13.77;9.03;;;23.60;70.60;;;24.56;42.87;95599.78;5024416;28;20480;-57
2022/10/08 07:17:37;;;;;;;20.43;8.63;;;23.90;68.90;;;24.85;42.68;95600.38;5024472;28;20484;-58
2022/10/08 07:20:06;;;;;;;15.87;8.10;;;24.30;65.90;;;25.27;41.53;95592.75;5025079;28;20827;-54
2022/10/08 07:22:35;;;;;;;20.60;7.90;;;24.70;64.30;;;25.68;41.47;95596.91;5024551;28;20514;-54
2022/10/08 07:25:02;;;;;;;15.80;9.10;;;25.20;63.30;;;26.07;40.86;95588.81;5023020;28;20472;-56
2022/10/08 07:27:30;;;;;;;20.47;8.97;;;25.60;61.50;;;26.33;39.85;95586.94;5023670;28;20448;-57
2022/10/08 07:29:57;;;;;;;18.37;8.10;;;25.90;59.00;;;26.59;38.91;95588.56;5024156;28;20477;-56
2022/10/08 07:32:24;;;;;;;11.60;7.90;;;26.10;57.00;;;26.79;39.32;95586.50;5023363;28;20456;-55
2022/10/08 07:34:52;;;;;;;21.70;8.50;;;26.50;57.80;;;27.03;38.32;95586.66;5023744;28;20482;-54
2022/10/08 07:37:19;;;;;;;15.00;9.47;;;26.80;56.20;;;27.27;37.57;95587.63;5024149;28;20518;-53
2022/10/08 07:39:47;;;;;;;15.40;9.37;;;27.00;54.50;;;27.33;37.75;95581.34;5023945;28;20473;-54
2022/10/08 07:42:15;;;;;;;17.50;9.13;;;27.20;54.60;;;27.32;37.10;95579.69;5024316;28;20444;-57
2022/10/08 07:44:42;;;;;;;23.00;9.20;;;27.10;53.90;;;27.30;37.12;95576.34;5024045;28;20467;-56
2022/10/08 07:47:09;;;;;;;23.63;9.87;;;27.00;53.80;;;27.36;37.25;95567.38;5024300;28;20452;-56
2022/10/08 07:49:37;;;;;;;13.43;8.73;;;27.00;53.60;;;27.40;37.13;95569.63;5023803;28;20476;-57
2022/10/08 07:52:05;;;;;;;13.80;8.10;;;27.00;53.60;;;27.49;37.50;95579.88;5024600;28;20653;-56
2022/10/08 07:54:32;;;;;;;13.93;8.47;;;27.10;53.70;;;27.69;36.90;95573.38;5024202;28;20879;-55
2022/10/08 07:57:01;;;;;;;12.30;8.43;;;27.20;53.70;;;27.91;36.86;95574.47;5023774;28;20459;-56
2022/10/08 07:59:28;;;;;;;15.03;7.60;;;27.40;53.10;;;28.15;35.42;95571.88;5024061;28;20484;-53
2022/10/08 08:01:56;;;;;;;26.77;8.37;;;27.60;51.80;;;28.37;35.89;95568.59;5023870;28;20836;-56
2022/10/08 08:04:25;;;;;;;15.30;8.57;;;27.80;52.10;;;28.55;35.51;95568.47;5023123;28;20490;-53
2022/10/08 08:06:53;;;;;;;18.93;8.03;;;28.00;51.10;;;28.69;35.09;95562.84;5024079;28;20448;-56
2022/10/08 08:09:21;;;;;;;13.87;9.27;;;28.20;50.90;;;28.78;34.98;95559.53;5023523;28;20857;-56
2022/10/08 08:11:48;;;;;;;14.93;9.03;;;28.30;49.80;;;28.88;34.65;95558.94;5024155;28;20953;-55
2022/10/08 08:14:18;;;;;;;27.77;9.77;;;28.40;49.60;;;28.83;33.98;95556.13;5026601;28;20468;-55
2022/10/08 08:16:45;;;;;;;9.30;7.50;;;28.30;49.10;;;28.75;33.62;95559.16;5026270;28;20483;-54
2022/10/08 08:19:13;;;;;;;15.53;9.57;;;28.30;48.70;;;28.64;34.58;95557.31;5026065;28;20578;-57
2022/10/08 08:21:40;;;;;;;11.30;8.77;;;28.10;49.10;;;28.57;33.62;95557.41;5027260;28;20805;-55
2022/10/08 08:24:09;;;;;;;11.70;8.47;;;28.00;48.90;;;28.64;34.54;95551.91;5027053;28;20713;-56
2022/10/08 08:26:37;;;;;;;20.17;9.17;;;28.00;49.10;;;28.66;34.00;95550.63;5027300;28;20463;-55
2022/10/08 08:29:06;;;;;;;17.30;9.10;;;28.00;49.10;;;28.71;34.26;95553.41;5031106;28;20448;-55
2022/10/08 08:31:36;;;;;;;17.13;9.13;;;28.00;49.10;;;28.83;33.94;95550.72;5027021;28;20463;-53
2022/10/08 08:34:05;;;;;;;18.93;9.00;;;28.10;48.40;;;28.97;34.08;95546.66;5027069;28;20517;-53
2022/10/08 08:36:34;;;;;;;24.83;9.30;;;28.30;49.10;;;29.17;33.73;95556.25;5027492;28;20456;-54
2022/10/08 08:39:03;;;;;;;17.23;9.73;;;28.40;48.40;;;29.30;33.68;95541.66;5027127;28;20549;-58
2022/10/08 08:41:55;;;;;;;13.00;8.57;;;28.50;48.20;;;29.27;32.69;95544.84;5023693;28;20971;-56
2022/10/08 08:44:24;;;;;;;18.17;9.17;;;28.50;47.30;;;29.27;32.30;95542.94;5025032;28;20563;-54
2022/10/08 08:46:55;;;;;;;23.43;8.10;;;28.50;46.80;;;29.17;32.32;95534.56;5027348;28;20463;-56
2022/10/08 08:49:28;;;;;;;13.00;7.63;;;28.40;46.70;;;28.96;31.93;95533.38;5026680;28;20553;-57
2022/10/08 08:51:56;;;;;;;18.30;9.40;;;28.30;46.30;;;28.89;32.56;95529.94;5026444;28;20459;-56
2022/10/08 08:54:23;;;;;;;15.03;8.57;;;28.20;47.20;;;28.91;32.92;95530.56;5026889;28;20468;-58
2022/10/08 08:56:51;;;;;;;17.10;7.30;;;28.20;47.20;;;28.92;31.90;95530.31;5028220;28;20448;-56
2022/10/08 08:59:29;;;;;;;9.67;7.20;;;28.10;46.70;;;28.94;32.99;95530.09;5027597;28;20844;-55
2022/10/08 09:01:59;;;;;;;17.30;7.23;;;28.20;47.00;;;29.00;32.52;95522.88;5023766;28;20452;-55
2022/10/08 09:04:35;;;;;;;13.43;7.60;;;28.20;47.00;;;29.10;32.20;95520.38;5027812;28;20460;-56
2022/10/08 09:07:04;;;;;;;8.70;6.40;;;28.30;46.80;;;29.20;32.62;95525.19;5026261;28;20451;-57
2022/10/08 09:09:36;;;;;;;11.87;7.47;;;28.40;46.20;;;29.28;31.79;95520.22;5027536;28;20487;-56
2022/10/08 09:12:06;;;;;;;17.93;7.43;;;28.50;46.20;;;29.38;31.34;95519.56;5026901;28;20498;-56
2022/10/08 09:14:36;;;;;;;11.20;6.50;;;28.60;45.70;;;29.53;32.16;95521.75;5027336;28;21080;-57
2022/10/08 09:17:14;;;;;;;13.10;7.23;;;28.70;45.50;;;29.68;30.46;95513.91;5026868;28;20456;-58
2022/10/08 09:19:41;;;;;;;9.20;6.70;;;28.90;44.60;;;29.73;31.15;95509.59;5024584;28;20471;-55
2022/10/08 09:22:21;;;;;;;7.77;7.10;;;28.90;44.40;;;29.76;31.23;95515.38;5026950;28;20517;-54
2022/10/08 09:24:51;;;;;;;10.93;6.83;;;28.90;45.60;;;29.58;31.08;95508.28;5026957;28;20468;-54
2022/10/08 09:27:18;;;;;;;15.20;7.17;;;28.90;44.50;;;29.40;31.19;95506.59;5023749;28;20444;-56
2022/10/08 09:29:46;;;;;;;9.20;6.57;;;28.80;44.40;;;29.41;31.90;95502.00;5027204;28;20464;-56
2022/10/08 09:32:19;;;;;;;11.23;6.40;;;28.70;45.30;;;29.35;31.30;95500.28;5026894;28;20486;-53
2022/10/08 09:34:47;;;;;;;11.27;5.90;;;28.60;44.30;;;29.19;31.40;95499.97;5025876;28;20483;-55
2022/10/08 09:37:22;;;;;;;7.23;5.43;;;28.50;44.30;;;28.98;30.94;95490.59;5026999;28;20463;-55
2022/10/08 09:40:18;;;;;;;6.30;4.67;;;28.40;44.10;;;28.78;30.30;95480.19;5023368;28;21007;-56
2022/10/08 09:42:45;;;;;;;12.13;6.00;;;28.30;44.10;;;28.65;31.81;95473.16;5025074;28;20968;-58
2022/10/08 09:45:32;;;;;;;14.20;5.10;;;28.10;44.40;;;28.51;31.30;95482.56;5027483;28;20585;-54
2022/10/08 09:48:18;;;;;;;13.43;5.97;;;27.90;44.60;;;28.37;30.73;95476.59;5026340;28;20555;-58
2022/10/08 09:50:55;;;;;;;6.47;5.80;;;27.80;44.80;;;28.16;31.41;95470.72;5025910;28;20464;-57
2022/10/08 09:53:23;;;;;;;8.90;5.77;;;27.60;44.70;;;28.06;31.53;95473.19;5025173;28;20777;-57
2022/10/08 09:55:55;;;;;;;10.60;5.77;;;27.50;45.10;;;28.01;31.96;95467.66;5026572;28;20855;-55
2022/10/08 09:58:22;;;;;;;9.20;6.30;;;27.40;45.40;;;27.97;32.05;95475.41;5024973;28;20492;-57
2022/10/08 10:01:05;;;;;;;9.37;4.43;;;27.30;45.30;;;27.96;31.19;95464.84;5024460;28;20491;-57
2022/10/08 10:03:34;;;;;;;9.90;5.23;;;27.30;44.80;;;27.80;31.87;95461.72;5024148;28;20448;-55
2022/10/08 10:06:01;;;;;;;6.07;4.43;;;27.20;45.20;;;27.63;31.90;95456.19;5026675;28;20912;-54
2022/10/08 10:08:49;;;;;;;6.50;4.20;;;27.10;45.10;;;27.72;31.78;95454.78;5023443;28;20455;-56
2022/10/08 10:11:23;;;;;;;4.40;4.10;;;27.00;44.90;;;27.90;32.27;95450.31;5026170;28;20476;-55
2022/10/08 10:13:50;;;;;;;4.43;4.03;;;27.20;45.60;;;27.98;32.19;95450.03;5025267;28;20452;-52
2022/10/08 10:16:22;;;;;;;4.50;4.10;;;27.20;45.20;;;27.96;31.95;95444.00;5026434;28;20568;-56
2022/10/08 10:18:56;;;;;;;4.73;4.33;;;27.30;44.90;;;27.82;31.49;95432.56;5027086;28;20482;-56
2022/10/08 10:21:30;;;;;;;6.83;3.83;;;27.20;44.30;;;27.71;31.45;95430.69;5026102;28;20516;-56
2022/10/08 10:24:07;;;;;;;7.27;3.53;;;27.10;44.60;;;27.55;31.50;95430.31;5026504;28;20463;-56